createdAt,value
2018-06-28T08:07:24.878Z,78.75
2018-06-28T08:08:24.123Z,73.13
2018-06-28T08:09:24.713Z,67.50
2018-06-28T08:10:24.705Z,84.38
2018-06-28T08:11:24.131Z,78.75
2018-06-28T08:12:24.886Z,106.88
2018-06-28T08:13:23.864Z,112.50
2018-06-28T08:14:23.395Z,112.50
2018-06-28T08:15:24.710Z,106.88
2018-06-28T08:16:24.881Z,67.50
2018-06-28T08:17:24.040Z,61.88
2018-06-28T08:18:24.129Z,67.50
2018-06-28T08:19:23.688Z,67.50
2018-06-28T08:20:24.174Z,78.75
2018-06-28T08:21:25.067Z,84.38
2018-06-28T08:22:24.950Z,84.38
2018-06-28T08:23:24.864Z,106.88
2018-06-28T08:24:24.852Z,118.13
2018-06-28T08:25:23.679Z,112.50
2018-06-28T08:26:24.963Z,78.75
2018-06-28T08:27:24.264Z,106.88
2018-06-28T08:28:24.893Z,84.38
2018-06-28T08:29:25.139Z,73.13
2018-06-28T08:30:24.810Z,73.13
2018-06-28T08:31:24.828Z,78.75
2018-06-28T08:32:24.112Z,95.63
2018-06-28T08:33:23.729Z,106.88
2018-06-28T08:34:25.147Z,106.88
2018-06-28T08:35:24.268Z,90.00
2018-06-28T08:36:24.483Z,101.25
2018-06-28T08:37:24.286Z,101.25
2018-06-28T08:38:24.936Z,90.00
2018-06-28T08:39:24.922Z,123.75
2018-06-28T08:40:24.861Z,129.38
2018-06-28T08:41:25.060Z,129.38
2018-06-28T08:42:24.180Z,106.88
2018-06-28T08:43:24.405Z,95.63
2018-06-28T08:44:25.189Z,95.63
2018-06-28T08:45:24.356Z,101.25
2018-06-28T08:46:25.194Z,123.75
2018-06-28T08:47:25.227Z,118.13
2018-06-28T08:48:24.381Z,106.88
2018-06-28T08:49:24.341Z,118.13
2018-06-28T08:50:25.159Z,151.88
2018-06-28T08:51:24.311Z,112.50
2018-06-28T08:52:25.179Z,112.50
2018-06-28T08:53:24.585Z,112.50
2018-06-28T08:54:24.435Z,112.50
2018-06-28T08:55:24.370Z,112.50
2018-06-28T08:56:24.600Z,112.50
2018-06-28T08:57:24.598Z,106.88
2018-06-28T08:58:24.547Z,101.25
2018-06-28T08:59:24.488Z,112.50
2018-06-28T09:00:24.501Z,112.50
2018-06-28T09:01:24.604Z,106.88
2018-06-28T09:02:24.064Z,101.25
2018-06-28T09:03:24.634Z,101.25
2018-06-28T09:04:24.654Z,95.63
2018-06-28T09:05:24.576Z,95.63
2018-06-28T09:06:24.578Z,90.00
2018-06-28T09:07:24.547Z,90.00
2018-06-28T09:08:24.481Z,95.63
2018-06-28T09:09:25.147Z,95.63
2018-06-28T09:10:24.612Z,90.00
2018-06-28T09:11:23.899Z,84.38
2018-06-28T09:12:25.683Z,84.38
2018-06-28T09:13:24.655Z,84.38
2018-06-28T09:14:25.234Z,90.00
2018-06-28T09:15:24.810Z,90.00
2018-06-28T09:16:24.949Z,90.00
2018-06-28T09:17:24.733Z,90.00
2018-06-28T09:18:24.624Z,95.63
2018-06-28T09:19:24.651Z,101.25
2018-06-28T09:20:25.166Z,106.88
2018-06-28T09:21:24.604Z,106.88
2018-06-28T09:22:24.601Z,112.50
2018-06-28T09:23:25.245Z,112.50
2018-06-28T09:24:24.689Z,129.38
2018-06-28T09:25:24.275Z,135.00
2018-06-28T09:26:24.643Z,118.13
2018-06-28T09:27:24.264Z,129.38
2018-06-28T09:28:23.860Z,118.13
2018-06-28T09:29:23.871Z,112.50
2018-06-28T09:30:23.878Z,118.13
2018-06-28T09:31:23.889Z,106.88
2018-06-28T09:32:23.934Z,106.88
2018-06-28T09:33:23.920Z,106.88
2018-06-28T09:34:23.916Z,106.88
2018-06-28T09:35:23.953Z,101.25
2018-06-28T09:36:23.941Z,106.88
2018-06-28T09:37:23.961Z,140.63
2018-06-28T09:38:23.962Z,135.00
2018-06-28T09:39:24.051Z,129.38
2018-06-28T09:40:24.023Z,106.88
2018-06-28T09:41:24.021Z,129.38
2018-06-28T09:42:24.021Z,163.13
2018-06-28T09:43:23.999Z,163.13
2018-06-28T09:44:24.010Z,157.50
2018-06-28T09:45:24.013Z,157.50
2018-06-28T09:46:24.085Z,151.88
2018-06-28T09:47:24.063Z,157.50
2018-06-28T09:48:24.090Z,151.88
2018-06-28T09:49:24.061Z,151.88
2018-06-28T09:50:24.073Z,135.00
2018-06-28T09:51:24.088Z,123.75
2018-06-28T09:52:24.085Z,123.75
2018-06-28T09:53:24.087Z,123.75
2018-06-28T09:54:25.004Z,129.38
2018-06-28T09:55:24.827Z,140.63
2018-06-28T09:56:25.003Z,129.38
2018-06-28T09:57:24.813Z,129.38
2018-06-28T09:58:25.684Z,151.88
2018-06-28T09:59:25.133Z,157.50
2018-06-28T10:00:25.168Z,157.50
2018-06-28T10:01:24.883Z,146.25
2018-06-28T10:02:25.555Z,163.13
2018-06-28T10:03:25.069Z,146.25
2018-06-28T10:04:24.202Z,174.38
2018-06-28T10:05:24.245Z,180.00
2018-06-28T10:06:26.869Z,191.25
2018-06-28T10:07:24.231Z,174.38
2018-06-28T10:08:24.240Z,151.88
2018-06-28T10:09:24.456Z,151.88
2018-06-28T10:10:24.262Z,151.88
2018-06-28T10:11:24.281Z,174.38
2018-06-28T10:12:24.281Z,151.88
2018-06-28T10:13:24.294Z,140.63
2018-06-28T10:14:24.302Z,174.38
2018-06-28T10:15:24.311Z,185.63
2018-06-28T10:16:24.325Z,174.38
2018-06-28T10:17:24.335Z,140.63
2018-06-28T10:18:24.345Z,135.00
2018-06-28T10:19:24.358Z,146.25
2018-06-28T10:20:24.394Z,146.25
2018-06-28T10:21:24.382Z,185.63
2018-06-28T10:22:24.387Z,174.38
2018-06-28T10:23:24.399Z,168.75
2018-06-28T10:24:24.411Z,163.13
2018-06-28T10:25:24.420Z,168.75
2018-06-28T10:26:24.433Z,106.88
2018-06-28T10:27:24.917Z,101.25
2018-06-28T10:28:24.465Z,106.88
2018-06-28T10:29:24.465Z,146.25
2018-06-28T10:30:24.607Z,151.88
2018-06-28T10:31:24.516Z,163.13
2018-06-28T10:32:24.496Z,151.88
2018-06-28T10:33:24.508Z,180.00
2018-06-28T10:34:24.523Z,185.63
2018-06-28T10:35:24.633Z,157.50
2018-06-28T10:36:24.538Z,151.88
2018-06-28T10:37:24.548Z,185.63
2018-06-28T10:38:24.558Z,174.38
2018-06-28T10:39:24.569Z,185.63
2018-06-28T10:40:24.625Z,140.63
2018-06-28T10:41:24.609Z,168.75
2018-06-28T10:42:24.642Z,123.75
2018-06-28T10:43:24.618Z,106.88
2018-06-28T10:44:24.631Z,101.25
2018-06-28T10:45:24.674Z,84.38
2018-06-28T10:46:24.686Z,73.13
2018-06-28T10:47:24.697Z,78.75
2018-06-28T10:48:24.683Z,78.75
2018-06-28T10:49:24.690Z,67.50
2018-06-28T10:50:24.759Z,61.88
2018-06-28T10:51:24.698Z,56.25
2018-06-28T10:52:24.707Z,45.00
2018-06-28T10:53:24.720Z,45.00
2018-06-28T10:54:24.737Z,45.00
2018-06-28T10:55:24.739Z,45.00
2018-06-28T10:56:24.764Z,39.38
2018-06-28T10:57:24.803Z,39.38
2018-06-28T10:58:24.780Z,33.75
2018-06-28T10:59:24.782Z,33.75
2018-06-28T11:00:24.792Z,33.75
2018-06-28T11:01:24.803Z,33.75
2018-06-28T11:02:24.819Z,33.75
2018-06-28T11:03:24.827Z,33.75
2018-06-28T11:04:24.832Z,28.13
2018-06-28T11:05:24.851Z,28.13
2018-06-28T11:06:24.857Z,22.50
2018-06-28T11:07:24.893Z,22.50
2018-06-28T11:08:24.919Z,22.50
2018-06-28T11:09:24.887Z,22.50
2018-06-28T11:10:24.901Z,22.50
2018-06-28T11:11:24.911Z,22.50
2018-06-28T11:12:24.914Z,22.50
2018-06-28T11:13:24.976Z,22.50
2018-06-28T11:14:24.940Z,22.50
2018-06-28T11:15:24.968Z,22.50
2018-06-28T11:16:24.952Z,22.50
2018-06-28T11:17:24.966Z,22.50
2018-06-28T11:18:24.980Z,22.50
2018-06-28T11:19:24.982Z,22.50
2018-06-28T11:20:25.011Z,22.50
2018-06-28T11:21:25.018Z,16.88
2018-06-28T11:22:25.015Z,16.88
2018-06-28T11:23:25.023Z,16.88
2018-06-28T11:24:25.035Z,22.50
2018-06-28T11:25:25.044Z,22.50
2018-06-28T11:26:25.053Z,22.50
2018-06-28T11:27:25.062Z,22.50
2018-06-28T11:28:25.074Z,22.50
2018-06-28T11:29:25.078Z,28.13
2018-06-28T11:30:25.095Z,28.13
2018-06-28T11:31:25.109Z,28.13
2018-06-28T11:32:25.107Z,28.13
2018-06-28T11:33:25.120Z,33.75
2018-06-28T11:34:25.133Z,33.75
2018-06-28T11:35:25.137Z,33.75
2018-06-28T11:36:25.148Z,33.75
2018-06-28T11:37:25.176Z,33.75
2018-06-28T11:38:25.175Z,33.75
2018-06-28T11:39:25.194Z,33.75
2018-06-28T11:40:25.184Z,39.38
2018-06-28T11:41:25.193Z,39.38
2018-06-28T11:42:25.217Z,39.38
2018-06-28T11:43:25.212Z,39.38
2018-06-28T11:44:25.223Z,39.38
2018-06-28T11:45:25.231Z,39.38
2018-06-28T11:46:25.244Z,39.38
2018-06-28T11:47:25.250Z,39.38
2018-06-28T11:48:25.260Z,39.38
2018-06-28T11:49:25.270Z,39.38
2018-06-28T11:50:25.280Z,39.38
2018-06-28T11:51:25.288Z,39.38
2018-06-28T11:52:25.296Z,39.38
2018-06-28T11:53:25.307Z,39.38
2018-06-28T11:54:25.325Z,39.38
2018-06-28T11:55:25.350Z,33.75
2018-06-28T11:56:25.338Z,33.75
2018-06-28T11:57:25.347Z,33.75
2018-06-28T11:58:25.353Z,33.75
2018-06-28T11:59:25.363Z,33.75
2018-06-28T12:00:25.415Z,33.75
2018-06-28T12:01:25.383Z,33.75
2018-06-28T12:02:25.404Z,33.75
2018-06-28T12:03:25.398Z,33.75
2018-06-28T12:04:25.425Z,33.75
2018-06-28T12:05:25.439Z,33.75
2018-06-28T12:06:25.435Z,33.75
2018-06-28T12:07:25.435Z,33.75
2018-06-28T12:08:25.451Z,33.75
2018-06-28T12:09:25.465Z,33.75
2018-06-28T12:10:25.479Z,33.75
2018-06-28T12:11:25.473Z,33.75
2018-06-28T12:12:25.482Z,33.75
2018-06-28T12:13:25.499Z,39.38
2018-06-28T12:14:25.503Z,39.38
2018-06-28T12:15:25.636Z,39.38
2018-06-28T12:16:25.544Z,39.38
2018-06-28T12:17:25.535Z,39.38
2018-06-28T12:18:25.538Z,45.00
2018-06-28T12:19:25.546Z,45.00
2018-06-28T12:20:25.554Z,45.00
2018-06-28T12:21:25.564Z,45.00
2018-06-28T12:22:25.627Z,45.00
2018-06-28T12:23:25.582Z,50.63
2018-06-28T12:24:25.592Z,50.63
2018-06-28T12:25:25.636Z,50.63
2018-06-28T12:26:25.616Z,50.63
2018-06-28T12:27:25.624Z,50.63
2018-06-28T12:28:25.638Z,50.63
2018-06-28T12:29:25.638Z,50.63
2018-06-28T12:30:25.652Z,50.63
2018-06-28T12:31:25.655Z,45.00
2018-06-28T12:32:25.664Z,45.00
2018-06-28T12:33:25.675Z,45.00
2018-06-28T12:34:25.710Z,39.38
2018-06-28T12:35:25.695Z,39.38
2018-06-28T12:36:25.719Z,39.38
2018-06-28T12:37:25.710Z,33.75
2018-06-28T12:38:25.719Z,39.38
2018-06-28T12:39:25.726Z,39.38
2018-06-28T12:40:25.740Z,45.00
2018-06-28T12:41:25.753Z,50.63
2018-06-28T12:42:25.758Z,56.25
2018-06-28T12:43:25.766Z,61.88
2018-06-28T12:44:25.787Z,67.50
2018-06-28T12:45:25.789Z,67.50
2018-06-28T12:46:25.834Z,73.13
2018-06-28T12:47:25.803Z,73.13
2018-06-28T12:48:25.811Z,73.13
2018-06-28T12:49:25.829Z,78.75
2018-06-28T12:50:25.831Z,78.75
2018-06-28T12:51:25.835Z,78.75
2018-06-28T12:52:25.848Z,84.38
2018-06-28T12:53:25.856Z,84.38
2018-06-28T12:54:25.875Z,84.38
2018-06-28T12:55:25.874Z,90.00
2018-06-28T12:56:25.887Z,90.00
2018-06-28T12:57:25.892Z,84.38
2018-06-28T12:58:25.901Z,90.00
2018-06-28T12:59:25.931Z,90.00
2018-06-28T13:00:25.921Z,90.00
2018-06-28T13:01:25.932Z,90.00
2018-06-28T13:02:25.942Z,78.75
2018-06-28T13:03:25.951Z,73.13
2018-06-28T13:04:25.957Z,67.50
2018-06-28T13:05:25.967Z,67.50
2018-06-28T13:06:25.974Z,61.88
2018-06-28T13:07:25.991Z,61.88
2018-06-28T13:08:25.994Z,61.88
2018-06-28T13:09:26.006Z,67.50
2018-06-28T13:10:26.015Z,73.13
2018-06-28T13:11:26.025Z,78.75
2018-06-28T13:12:26.029Z,78.75
2018-06-28T13:13:26.048Z,78.75
2018-06-28T13:14:26.048Z,73.13
2018-06-28T13:15:26.062Z,73.13
2018-06-28T13:16:26.073Z,67.50
2018-06-28T13:17:26.076Z,61.88
2018-06-28T13:18:26.090Z,61.88
2018-06-28T13:19:26.096Z,56.25
2018-06-28T13:20:26.179Z,56.25
2018-06-28T13:21:26.114Z,50.63
2018-06-28T13:22:26.123Z,45.00
2018-06-28T13:23:26.132Z,39.38
2018-06-28T13:24:26.144Z,39.38
2018-06-28T13:25:26.162Z,33.75
2018-06-28T13:26:26.162Z,28.13
2018-06-28T13:27:26.177Z,33.75
2018-06-28T13:28:26.190Z,28.13
2018-06-28T13:29:26.190Z,28.13
2018-06-28T13:30:26.201Z,28.13
2018-06-28T13:31:26.206Z,22.50
2018-06-28T13:32:26.220Z,22.50
2018-06-28T13:33:26.244Z,22.50
2018-06-28T13:34:26.235Z,22.50
2018-06-28T13:35:26.245Z,22.50
2018-06-28T13:36:26.256Z,28.13
2018-06-28T13:37:26.264Z,28.13
2018-06-28T13:38:26.277Z,28.13
2018-06-28T13:39:26.304Z,28.13
2018-06-28T13:40:26.290Z,28.13
2018-06-28T13:41:26.518Z,28.13
2018-06-28T13:42:26.309Z,33.75
2018-06-28T13:43:26.317Z,33.75
2018-06-28T13:44:26.344Z,33.75
2018-06-28T13:45:26.339Z,33.75
2018-06-28T13:46:26.349Z,33.75
2018-06-28T13:47:26.354Z,33.75
2018-06-28T13:48:26.365Z,39.38
2018-06-28T13:49:26.381Z,39.38
2018-06-28T13:50:26.432Z,39.38
2018-06-28T13:51:26.425Z,39.38
2018-06-28T13:52:26.402Z,45.00
2018-06-28T13:53:26.410Z,45.00
2018-06-28T13:54:26.464Z,50.63
2018-06-28T13:55:26.429Z,50.63
2018-06-28T13:56:26.446Z,50.63
2018-06-28T13:57:26.450Z,50.63
2018-06-28T13:58:26.454Z,56.25
2018-06-28T13:59:26.462Z,56.25
2018-06-28T14:00:26.480Z,56.25
2018-06-28T14:01:26.482Z,61.88
2018-06-28T14:02:26.490Z,61.88
2018-06-28T14:03:26.531Z,61.88
2018-06-28T14:04:26.508Z,67.50
2018-06-28T14:05:26.519Z,73.13
2018-06-28T14:06:26.530Z,78.75
2018-06-28T14:07:26.535Z,78.75
2018-06-28T14:08:26.544Z,84.38
2018-06-28T14:09:26.635Z,84.38
2018-06-28T14:10:26.561Z,84.38
2018-06-28T14:11:26.573Z,84.38
2018-06-28T14:12:26.584Z,84.38
2018-06-28T14:13:26.589Z,78.75
2018-06-28T14:14:26.600Z,73.13
2018-06-28T14:15:26.606Z,73.13
2018-06-28T14:16:26.665Z,67.50
2018-06-28T14:17:26.632Z,61.88
2018-06-28T14:18:26.642Z,56.25
2018-06-28T14:19:26.643Z,50.63
2018-06-28T14:20:26.669Z,50.63
2018-06-28T14:21:26.662Z,45.00
2018-06-28T14:22:26.675Z,45.00
2018-06-28T14:23:26.751Z,45.00
2018-06-28T14:24:26.716Z,39.38
2018-06-28T14:25:26.721Z,33.75
2018-06-28T14:26:26.707Z,33.75
2018-06-28T14:27:26.714Z,33.75
2018-06-28T14:28:26.745Z,33.75
2018-06-28T14:29:26.765Z,33.75
2018-06-28T14:30:26.746Z,28.13
2018-06-28T14:31:26.857Z,28.13
2018-06-28T14:32:26.764Z,22.50
2018-06-28T14:33:26.773Z,22.50
2018-06-28T14:34:26.799Z,22.50
2018-06-28T14:35:26.810Z,16.88
2018-06-28T14:36:26.797Z,16.88
2018-06-28T14:37:26.813Z,16.88
2018-06-28T14:38:26.831Z,16.88
2018-06-28T14:39:26.875Z,16.88
2018-06-28T14:40:26.852Z,16.88
2018-06-28T14:41:26.863Z,16.88
2018-06-28T14:42:26.854Z,16.88
2018-06-28T14:43:26.899Z,16.88
2018-06-28T14:44:27.508Z,16.88
2018-06-28T14:45:26.898Z,16.88
2018-06-28T14:46:26.903Z,16.88
2018-06-28T14:47:26.991Z,16.88
2018-06-28T14:48:26.906Z,16.88
2018-06-28T14:49:26.912Z,16.88
2018-06-28T14:50:26.977Z,16.88
2018-06-28T14:51:26.957Z,16.88
2018-06-28T14:52:26.964Z,16.88
2018-06-28T14:53:26.970Z,16.88
2018-06-28T14:54:26.975Z,16.88
2018-06-28T14:55:26.982Z,16.88
2018-06-28T14:56:27.004Z,16.88
2018-06-28T14:57:27.000Z,16.88
2018-06-28T14:58:27.014Z,16.88
2018-06-28T14:59:27.018Z,16.88
2018-06-28T15:00:27.027Z,16.88
2018-06-28T15:01:27.038Z,16.88
2018-06-28T15:02:27.043Z,16.88
2018-06-28T15:03:27.085Z,16.88
2018-06-28T15:04:27.062Z,16.88
2018-06-28T15:05:27.103Z,16.88
2018-06-28T15:06:27.080Z,16.88
2018-06-28T15:07:27.069Z,16.88
2018-06-28T15:08:27.089Z,16.88
2018-06-28T15:09:27.089Z,16.88
2018-06-28T15:10:27.094Z,16.88
2018-06-28T15:11:27.103Z,16.88
2018-06-28T15:12:27.110Z,16.88
2018-06-28T15:13:27.122Z,16.88
2018-06-28T15:14:27.144Z,11.25
2018-06-28T15:15:27.173Z,16.88
2018-06-28T15:16:27.151Z,11.25
2018-06-28T15:17:27.158Z,11.25
2018-06-28T15:18:27.165Z,11.25
2018-06-28T15:19:27.176Z,11.25
2018-06-28T15:20:27.183Z,11.25
2018-06-28T15:21:27.251Z,11.25
2018-06-28T15:22:27.197Z,11.25
2018-06-28T15:23:27.212Z,11.25
2018-06-28T15:24:27.215Z,11.25
2018-06-28T15:25:27.224Z,11.25
2018-06-28T15:26:27.232Z,11.25
2018-06-28T15:27:27.257Z,11.25
2018-06-28T15:28:27.245Z,11.25
2018-06-28T15:29:27.257Z,11.25
2018-06-28T15:30:27.270Z,11.25
2018-06-28T15:31:27.315Z,11.25
2018-06-28T15:32:27.290Z,5.63
2018-06-28T15:33:27.294Z,5.63
2018-06-28T15:34:27.300Z,5.63
2018-06-28T15:35:27.314Z,11.25
2018-06-28T15:36:27.323Z,11.25
2018-06-28T15:37:27.326Z,11.25
2018-06-28T15:38:27.333Z,16.88
2018-06-28T15:39:27.342Z,22.50
2018-06-28T15:40:27.349Z,22.50
2018-06-28T15:41:27.361Z,28.13
2018-06-28T15:42:27.367Z,28.13
2018-06-28T15:43:27.372Z,33.75
2018-06-28T15:44:27.384Z,33.75
2018-06-28T15:45:27.398Z,39.38
2018-06-28T15:46:27.399Z,39.38
2018-06-28T15:47:27.406Z,39.38
2018-06-28T15:48:27.415Z,39.38
2018-06-28T15:49:27.425Z,39.38
2018-06-28T15:50:27.434Z,39.38
2018-06-28T15:51:27.440Z,39.38
2018-06-28T15:52:27.450Z,39.38
2018-06-28T15:53:27.474Z,33.75
2018-06-28T15:54:27.471Z,33.75
2018-06-28T15:55:27.480Z,33.75
2018-06-28T15:56:27.481Z,28.13
2018-06-28T15:57:27.538Z,28.13
2018-06-28T15:58:27.505Z,28.13
2018-06-28T15:59:27.507Z,28.13
2018-06-28T16:00:27.518Z,22.50
2018-06-28T16:01:27.530Z,22.50
2018-06-28T16:02:27.539Z,22.50
2018-06-28T16:03:27.542Z,22.50
2018-06-28T16:04:27.558Z,22.50
2018-06-28T16:05:27.561Z,22.50
2018-06-28T16:06:27.564Z,22.50
2018-06-28T16:07:27.583Z,22.50
2018-06-28T16:08:27.593Z,22.50
2018-06-28T16:09:27.594Z,22.50
2018-06-28T16:10:27.613Z,16.88
2018-06-28T16:11:27.612Z,16.88
2018-06-28T16:12:27.616Z,16.88
2018-06-28T16:13:27.626Z,16.88
2018-06-28T16:14:27.633Z,11.25
2018-06-28T16:15:27.640Z,11.25
2018-06-28T16:16:27.665Z,11.25
2018-06-28T16:17:27.656Z,11.25
2018-06-28T16:18:27.667Z,11.25
2018-06-28T16:19:27.677Z,11.25
2018-06-28T16:20:27.684Z,11.25
2018-06-28T16:21:27.691Z,11.25
2018-06-28T16:22:27.697Z,11.25
2018-06-28T16:23:27.758Z,5.63
2018-06-28T16:24:27.724Z,5.63
2018-06-28T16:25:27.745Z,5.63
2018-06-28T16:26:27.732Z,5.63
2018-06-28T16:27:27.738Z,11.25
2018-06-28T16:28:27.747Z,11.25
2018-06-28T16:29:27.756Z,11.25
2018-06-28T16:30:27.779Z,16.88
2018-06-28T16:31:27.770Z,16.88
2018-06-28T16:32:27.781Z,22.50
2018-06-28T16:33:27.800Z,22.50
2018-06-28T16:34:27.802Z,22.50
2018-06-28T16:35:27.818Z,22.50
2018-06-28T16:36:27.817Z,22.50
2018-06-28T16:37:27.825Z,22.50
2018-06-28T16:38:27.832Z,22.50
2018-06-28T16:39:27.933Z,22.50
2018-06-28T16:40:27.869Z,16.88
2018-06-28T16:41:27.853Z,16.88
2018-06-28T16:42:27.864Z,16.88
2018-06-28T16:43:27.868Z,16.88
2018-06-28T16:44:27.874Z,16.88
2018-06-28T16:45:27.883Z,16.88
2018-06-28T16:46:27.925Z,16.88
2018-06-28T16:47:27.902Z,16.88
2018-06-28T16:48:27.911Z,22.50
2018-06-28T16:49:27.919Z,22.50
2018-06-28T16:50:27.922Z,22.50
2018-06-28T16:51:27.937Z,28.13
2018-06-28T16:52:27.992Z,28.13
2018-06-28T16:53:27.954Z,28.13
2018-06-28T16:54:27.958Z,33.75
2018-06-28T16:55:27.978Z,33.75
2018-06-28T16:56:27.995Z,33.75
2018-06-28T16:57:27.980Z,39.38
2018-06-28T16:58:27.991Z,39.38
2018-06-28T16:59:28.061Z,33.75
2018-06-28T17:00:28.006Z,33.75
2018-06-28T17:01:28.011Z,33.75
2018-06-28T17:02:28.024Z,39.38
2018-06-28T17:03:28.035Z,39.38
2018-06-28T17:04:28.075Z,39.38
2018-06-28T17:05:28.045Z,39.38
2018-06-28T17:06:28.056Z,39.38
2018-06-28T17:07:28.059Z,39.38
2018-06-28T17:08:28.099Z,39.38
2018-06-28T17:09:28.100Z,33.75
2018-06-28T17:10:28.092Z,33.75
2018-06-28T17:11:28.092Z,28.13
2018-06-28T17:12:28.098Z,28.13
2018-06-28T17:13:28.107Z,28.13
2018-06-28T17:14:28.115Z,28.13
2018-06-28T17:15:28.121Z,28.13
2018-06-28T17:16:28.129Z,28.13
2018-06-28T17:17:28.145Z,28.13
2018-06-28T17:18:28.160Z,28.13
2018-06-28T17:19:28.158Z,22.50
2018-06-28T17:20:28.242Z,22.50
2018-06-28T17:21:28.178Z,16.88
2018-06-28T17:22:28.182Z,16.88
2018-06-28T17:23:28.195Z,16.88
2018-06-28T17:24:28.201Z,11.25
2018-06-28T17:25:28.202Z,11.25
2018-06-28T17:26:28.215Z,11.25
2018-06-28T17:27:28.220Z,11.25
2018-06-28T17:28:28.229Z,11.25
2018-06-28T17:29:28.232Z,11.25
2018-06-28T17:30:28.273Z,5.63
2018-06-28T17:31:28.253Z,5.63
2018-06-28T17:32:28.259Z,5.63
2018-06-28T17:33:28.270Z,5.63
2018-06-28T17:34:28.300Z,5.63
2018-06-28T17:35:28.284Z,5.63
2018-06-28T17:36:28.293Z,5.63
2018-06-28T17:37:28.329Z,11.25
2018-06-28T17:38:28.309Z,11.25
2018-06-28T17:39:28.311Z,11.25
2018-06-28T17:40:28.321Z,11.25
2018-06-28T17:41:28.328Z,11.25
2018-06-28T17:42:28.338Z,11.25
2018-06-28T17:43:28.357Z,11.25
2018-06-28T17:44:28.360Z,11.25
2018-06-28T17:45:28.360Z,11.25
2018-06-28T17:46:28.369Z,11.25
2018-06-28T17:47:28.380Z,11.25
2018-06-28T17:48:28.382Z,11.25
2018-06-28T17:49:28.394Z,16.88
2018-06-28T17:50:28.401Z,16.88
2018-06-28T17:51:28.414Z,16.88
2018-06-28T17:52:28.413Z,16.88
2018-06-28T17:53:28.425Z,16.88
2018-06-28T17:54:28.433Z,16.88
2018-06-28T17:55:28.438Z,16.88
2018-06-28T17:56:28.455Z,16.88
2018-06-28T17:57:28.461Z,16.88
2018-06-28T17:58:28.465Z,16.88
2018-06-28T17:59:28.483Z,16.88
2018-06-28T18:00:28.485Z,11.25
2018-06-28T18:01:28.490Z,11.25
2018-06-28T18:02:28.503Z,11.25
2018-06-28T18:03:28.523Z,11.25
2018-06-28T18:04:28.514Z,11.25
2018-06-28T18:05:28.520Z,16.88
2018-06-28T18:06:28.528Z,16.88
2018-06-28T18:07:28.561Z,16.88
2018-06-28T18:08:28.564Z,16.88
2018-06-28T18:09:28.561Z,16.88
2018-06-28T18:10:28.572Z,11.25
2018-06-28T18:11:28.577Z,11.25
2018-06-28T18:12:28.571Z,11.25
2018-06-28T18:13:28.591Z,11.25
2018-06-28T18:14:28.594Z,11.25
2018-06-28T18:15:28.600Z,11.25
2018-06-28T18:16:28.601Z,11.25
2018-06-28T18:17:28.610Z,5.63
2018-06-28T18:18:28.619Z,5.63
2018-06-28T18:19:28.625Z,5.63
2018-06-28T18:20:28.631Z,5.63
2018-06-28T18:21:28.637Z,5.63
2018-06-28T18:22:28.657Z,5.63
2018-06-28T18:23:28.655Z,5.63
2018-06-28T18:24:28.661Z,5.63
2018-06-28T18:25:28.671Z,5.63
2018-06-28T18:26:28.685Z,5.63
2018-06-28T18:27:28.748Z,5.63
2018-06-28T18:28:28.694Z,5.63
2018-06-28T18:29:28.705Z,5.63
2018-06-28T18:30:28.714Z,5.63
2018-06-28T18:31:28.714Z,5.63
2018-06-28T18:32:28.728Z,5.63
2018-06-28T18:33:28.736Z,5.63
2018-06-28T18:34:28.743Z,5.63
2018-06-28T18:35:28.758Z,5.63
2018-06-28T18:36:28.766Z,5.63
2018-06-28T18:37:28.765Z,5.63
2018-06-28T18:38:28.835Z,5.63
2018-06-28T18:39:28.777Z,5.63
2018-06-28T18:40:28.781Z,5.63
2018-06-28T18:41:28.788Z,5.63
2018-06-28T18:42:28.802Z,5.63
2018-06-28T18:43:28.807Z,5.63
2018-06-28T18:44:28.822Z,5.63
2018-06-28T18:45:28.820Z,5.63
2018-06-28T18:46:28.835Z,0.00
2018-06-28T18:47:28.839Z,0.00
2018-06-28T18:48:28.845Z,0.00
2018-06-28T18:49:28.849Z,0.00
2018-06-28T18:50:28.910Z,0.00
2018-06-28T18:51:28.866Z,0.00
2018-06-28T18:52:28.873Z,0.00
2018-06-28T18:53:28.914Z,0.00
2018-06-28T18:54:28.888Z,0.00
2018-06-28T18:55:28.908Z,0.00
2018-06-28T18:56:28.902Z,0.00
2018-06-28T18:57:28.983Z,0.00
2018-06-28T18:58:28.923Z,0.00
2018-06-28T18:59:28.935Z,0.00
2018-06-28T19:00:28.946Z,0.00
2018-06-28T19:01:28.969Z,0.00
2018-06-28T19:02:28.947Z,0.00
2018-06-28T19:03:28.955Z,0.00
2018-06-28T19:04:28.968Z,0.00
2018-06-28T19:05:28.970Z,0.00
2018-06-28T19:06:28.982Z,0.00
2018-06-28T19:07:28.989Z,0.00
2018-06-28T19:08:29.046Z,0.00
2018-06-28T19:09:29.000Z,0.00
2018-06-28T19:10:29.006Z,0.00
2018-06-28T19:11:29.016Z,0.00
2018-06-28T19:12:29.022Z,0.00
2018-06-28T19:13:29.027Z,0.00
2018-06-28T19:14:29.255Z,0.00
2018-06-28T19:15:29.056Z,0.00
2018-06-28T19:16:29.047Z,0.00
2018-06-28T19:17:29.060Z,0.00
2018-06-28T19:18:29.069Z,0.00
2018-06-28T19:19:29.074Z,0.00
2018-06-28T19:20:29.077Z,0.00
2018-06-28T19:21:29.093Z,0.00
2018-06-28T19:22:29.096Z,0.00
2018-06-28T19:23:29.117Z,0.00
2018-06-28T19:24:29.110Z,0.00
2018-06-28T19:25:29.118Z,0.00
2018-06-28T19:26:29.128Z,0.00
2018-06-28T19:27:29.129Z,0.00
2018-06-28T19:28:29.140Z,0.00
2018-06-28T19:29:29.142Z,0.00
2018-06-28T19:30:29.150Z,0.00
2018-06-28T19:31:29.185Z,0.00
2018-06-28T19:32:29.168Z,0.00
2018-06-28T19:33:29.174Z,0.00
2018-06-28T19:34:29.179Z,0.00
2018-06-28T19:35:29.186Z,0.00
2018-06-28T19:36:29.199Z,0.00
2018-06-28T19:37:29.203Z,0.00
2018-06-28T19:38:29.214Z,0.00
2018-06-28T19:39:29.216Z,0.00
2018-06-28T19:40:29.225Z,0.00
2018-06-28T19:41:29.287Z,0.00
2018-06-28T19:42:29.234Z,0.00
2018-06-28T19:43:29.247Z,0.00
2018-06-28T19:44:29.249Z,0.00
2018-06-28T19:45:29.268Z,0.00
2018-06-28T19:46:29.262Z,0.00
2018-06-28T19:47:29.275Z,0.00
2018-06-28T19:48:29.281Z,0.00
2018-06-28T19:49:29.290Z,0.00
2018-06-28T19:50:29.295Z,0.00
2018-06-28T19:51:29.304Z,0.00
2018-06-28T19:52:29.315Z,0.00
2018-06-28T19:53:29.333Z,0.00
2018-06-28T19:54:29.340Z,0.00
2018-06-28T19:55:29.327Z,0.00
2018-06-28T19:56:29.341Z,0.00
2018-06-28T19:57:29.340Z,0.00
2018-06-28T19:58:29.349Z,0.00
2018-06-28T19:59:29.353Z,0.00
2018-06-28T20:00:29.385Z,0.00
2018-06-28T20:01:29.371Z,0.00
2018-06-28T20:02:29.374Z,0.00
2018-06-28T20:03:29.384Z,0.00
2018-06-28T20:04:29.392Z,0.00
2018-06-28T20:05:29.404Z,0.00
2018-06-28T20:06:29.409Z,0.00
2018-06-28T20:07:29.410Z,0.00
2018-06-28T20:08:29.416Z,0.00
2018-06-28T20:09:29.482Z,0.00
2018-06-28T20:10:29.432Z,0.00
2018-06-28T20:11:29.443Z,0.00
2018-06-28T20:12:29.448Z,0.00
2018-06-28T20:13:29.455Z,0.00
2018-06-28T20:14:29.470Z,0.00
2018-06-28T20:15:29.468Z,0.00
2018-06-28T20:16:29.525Z,0.00
2018-06-28T20:17:29.478Z,0.00
2018-06-28T20:18:29.492Z,0.00
2018-06-28T20:19:29.498Z,0.00
2018-06-28T20:20:29.499Z,0.00
2018-06-28T20:21:29.508Z,0.00
2018-06-28T20:22:29.523Z,0.00
2018-06-28T20:23:29.554Z,0.00
2018-06-28T20:24:29.577Z,0.00
2018-06-28T20:25:29.532Z,0.00
2018-06-28T20:26:29.547Z,0.00
2018-06-28T20:27:29.549Z,0.00
2018-06-28T20:28:29.554Z,0.00
2018-06-28T20:29:29.564Z,0.00
2018-06-28T20:30:29.572Z,0.00
2018-06-28T20:31:29.576Z,0.00
2018-06-28T20:32:29.579Z,0.00
2018-06-28T20:33:29.590Z,0.00
2018-06-28T20:34:29.595Z,0.00
2018-06-28T20:35:29.685Z,0.00
2018-06-28T20:36:29.608Z,0.00
2018-06-28T20:37:29.618Z,0.00
2018-06-28T20:38:29.629Z,0.00
2018-06-28T20:39:29.644Z,0.00
2018-06-28T20:40:29.643Z,0.00
2018-06-28T20:41:29.641Z,0.00
2018-06-28T20:42:29.647Z,0.00
2018-06-28T20:43:29.655Z,0.00
2018-06-28T20:44:29.664Z,0.00
2018-06-28T20:45:29.692Z,0.00
2018-06-28T20:46:29.679Z,0.00
2018-06-28T20:47:29.683Z,0.00
2018-06-28T20:48:29.693Z,0.00
2018-06-28T20:49:29.696Z,0.00
2018-06-28T20:50:29.702Z,0.00
2018-06-28T20:51:29.716Z,0.00
2018-06-28T20:52:29.715Z,0.00
2018-06-28T20:53:29.720Z,0.00
2018-06-28T20:54:29.727Z,0.00
2018-06-28T20:55:29.738Z,0.00
2018-06-28T20:56:29.742Z,0.00
2018-06-28T20:57:29.751Z,0.00
2018-06-28T20:58:29.760Z,0.00
2018-06-28T20:59:29.770Z,0.00
2018-06-28T21:00:29.772Z,0.00
2018-06-28T21:01:29.781Z,0.00